Tecumseh — WTW9257 — position and weather

sailwx.info

Track history (hours):
 
Tides and Currents Weather Stations Pressure Air Temp Water Temp Dewpoint Dewpoint Depression Visibility Wind Speed Wind Dir Waves Ship Positions

Tecumseh

Owner: Sause Bros. Inc., COOS BAY, OR. More information available from US FCC via Universal Licensing System and Coast Guard Vessel Documentation Center.

Last reported at 2017-May-23 02:59 UTC. Time now 2017-May-23 03:13 UTC.
Position N 33°40' W 119°27'.

Length 90 m; draft 4.8 m.

Type: Towing. MMSI: 367133160.

Date/timePositionNaut miles runAvg speedWind from/ knotsBaromVisibWave heightAir tempDewpointWater temp
2017-May-23 02:59N 33°40' W 119°27'4 8.1
2017-May-23 02:30N 33°40' W 119°32'4 8.6
2017-May-23 01:59N 33°41' W 119°37'4 9.0
2017-May-23 01:30N 33°41' W 119°42'4 8.9
2017-May-23 01:00N 33°42' W 119°48'3 6.4
2017-May-23 00:30N 33°42' W 119°51'5 8.6
2017-May-22 23:53N 33°43' W 119°58'4 9.6
2017-May-22 23:30N 33°43' W 120°02'5 8.7
2017-May-22 22:54N 33°44' W 120°08'3 8.8
2017-May-22 22:30N 33°45' W 120°12'6 8.3
2017-May-22 21:44N 33°46' W 120°20'2 8.2
2017-May-22 21:30N 33°47' W 120°22'5 7.5
2017-May-22 20:51N 33°48' W 120°28'3 7.7
2017-May-22 20:29N 33°49' W 120°31'3 7.3
2017-May-22 20:00N 33°50' W 120°35'4 7.5
2017-May-22 19:30N 33°50' W 120°40'4 7.3
2017-May-22 18:59N 33°51' W 120°44'4 7.3
2017-May-22 18:23N 33°52' W 120°49'3 7.4
2017-May-22 17:59N 33°53' W 120°53'4 7.6
2017-May-22 17:30N 33°54' W 120°57'4 7.3
2017-May-22 17:00N 33°56' W 121°00'5 7.7
2017-May-22 16:22N 34°01' W 121°03'3 7.5
2017-May-22 15:59N 34°03' W 121°05'4 7.8
2017-May-22 15:30N 34°06' W 121°07'4 7.5
2017-May-22 14:59N 34°10' W 121°09'7 7.6
2017-May-22 14:00N 34°17' W 121°13'4 7.6
2017-May-22 13:29N 34°20' W 121°15'5 7.6
2017-May-22 12:50N 34°24' W 121°18'3 8.0
2017-May-22 12:29N 34°27' W 121°20'4 8.0
2017-May-22 12:00N 34°30' W 121°21'4 7.8
2017-May-22 11:29N 34°34' W 121°24'4 7.6
2017-May-22 11:00N 34°37' W 121°26'4 7.2
2017-May-22 10:30N 34°40' W 121°28'4 7.3
2017-May-22 10:00N 34°43' W 121°30'4 7.4
2017-May-22 09:27N 34°47' W 121°33'3 7.5
2017-May-22 09:00N 34°50' W 121°35'4 7.2
2017-May-22 08:30N 34°53' W 121°37'4 7.2
2017-May-22 08:00N 34°56' W 121°39'4 7.2
2017-May-22 07:30N 34°60' W 121°41'4 7.1
2017-May-22 06:59N 35°03' W 121°43'3 7.0
2017-May-22 06:30N 35°06' W 121°45'3 7.0
2017-May-22 06:00N 35°09' W 121°47'4 7.6
2017-May-22 05:27N 35°13' W 121°49'3 7.6
2017-May-22 05:00N 35°16' W 121°51'4 7.4
2017-May-22 04:30N 35°19' W 121°53'4 7.3
2017-May-22 04:00N 35°22' W 121°56'5 7.7
2017-May-22 03:24N 35°26' W 121°58'3 7.6
2017-May-22 03:00N 35°29' W 122°00'4 7.5
2017-May-22 02:30N 35°32' W 122°02'8 7.6
2017-May-22 01:29N 35°39' W 122°06'4 7.7
2017-May-22 00:58N 35°43' W 122°09'4 7.9
2017-May-22 00:26N 35°46' W 122°11'4 9.0
2017-May-22 00:00N 35°50' W 122°13'5 9.1
2017-May-21 23:25N 35°54' W 122°16'4 8.9
2017-May-21 23:00N 35°58' W 122°18'4 8.8
2017-May-21 22:30N 36°02' W 122°21'5 9.0
2017-May-21 22:00N 36°06' W 122°23'4 8.4
2017-May-21 21:30N 36°09' W 122°26'4 8.1
2017-May-21 21:00N 36°13' W 122°28'4 8.0
2017-May-21 20:30N 36°17' W 122°30'4 8.0
2017-May-21 20:00N 36°20' W 122°33'4 8.3
2017-May-21 19:30N 36°24' W 122°35'4 8.3
2017-May-21 19:00N 36°28' W 122°37'4 8.6
2017-May-21 18:30N 36°32' W 122°39'4 8.2
2017-May-21 18:00N 36°35' W 122°41'4 7.8
2017-May-21 17:30N 36°39' W 122°43'4 7.6
2017-May-21 17:00N 36°42' W 122°45'4 7.5
2017-May-21 16:30N 36°46' W 122°47'4 7.4
2017-May-21 15:56N 36°50' W 122°49'3 7.6
2017-May-21 15:30N 36°53' W 122°51'4 7.6
2017-May-21 14:59N 36°56' W 122°53'8 7.9
2017-May-21 14:00N 37°03' W 122°57'10 8.0
2017-May-21 12:45N 37°13' W 123°02'4 8.6
2017-May-21 12:18N 37°17' W 123°02'3 8.5
2017-May-21 11:56N 37°20' W 123°03'4 8.1
2017-May-21 11:30N 37°23' W 123°04'5 8.1
2017-May-21 10:52N 37°28' W 123°05'3 8.3
2017-May-21 10:30N 37°31' W 123°05'5 7.4
2017-May-21 09:53N 37°35' W 123°02'5 7.5
2017-May-21 09:14N 37°38' W 122°57'2 7.8
2017-May-21 09:00N 37°39' W 122°55'4 7.2
2017-May-21 08:30N 37°41' W 122°52'4 8.3
2017-May-21 08:00N 37°43' W 122°47'4 8.1
2017-May-21 07:30N 37°46' W 122°43'4 7.3
2017-May-21 07:00N 37°46' W 122°39'4 9.1
2017-May-21 06:30N 37°47' W 122°33'5 9.2
2017-May-21 06:00N 37°49' W 122°28'4 7.1
2017-May-21 05:30N 37°52' W 122°25'3 5.6
2017-May-21 05:00N 37°55' W 122°26'1 1.7
2017-May-21 04:30N 37°55' W 122°26'1 1.4
2017-May-21 04:00N 37°55' W 122°25'0 0.0
2017-May-21 03:30N 37°55' W 122°25'0 0.2
2017-May-21 03:00N 37°55' W 122°25'0 0.0
2017-May-21 02:30N 37°55' W 122°25'0 0.0
2017-May-21 02:00N 37°55' W 122°25'0 0.0
2017-May-21 01:30N 37°55' W 122°25'0 0.0
2017-May-21 01:00N 37°55' W 122°25'0 0.0
2017-May-21 00:30N 37°55' W 122°25'0 0.0
2017-May-21 00:00N 37°55' W 122°25'0 0.0
2017-May-20 23:30N 37°55' W 122°25'0 0.0
2017-May-20 23:00N 37°55' W 122°25'0 0.0
2017-May-20 22:30N 37°55' W 122°25'0 0.0
2017-May-20 22:00N 37°55' W 122°25'0 0.0
2017-May-20 21:30N 37°55' W 122°25'0 0.0
2017-May-20 21:00N 37°55' W 122°25'0 0.0
2017-May-20 20:30N 37°55' W 122°25'0 0.0
2017-May-20 20:00N 37°55' W 122°25'0 0.0
2017-May-20 19:30N 37°55' W 122°25'0 0.0
2017-May-20 19:00N 37°55' W 122°25'0 0.0
2017-May-20 18:30N 37°55' W 122°25'0 0.0
2017-May-20 18:00N 37°55' W 122°25'0 0.0
2017-May-20 17:30N 37°55' W 122°25'0 0.0
2017-May-20 17:00N 37°55' W 122°25'0 0.0
2017-May-20 16:30N 37°55' W 122°25'0 0.0
2017-May-20 16:00N 37°55' W 122°25'0 0.0
2017-May-20 15:30N 37°55' W 122°25'0 0.0
2017-May-20 14:59N 37°55' W 122°25'0 0.0
2017-May-20 14:30N 37°55' W 122°25'0 0.0
2017-May-20 13:30N 37°55' W 122°25'0 0.0
2017-May-20 13:00N 37°55' W 122°25'0 0.0
2017-May-20 12:30N 37°55' W 122°25'0 0.0
2017-May-20 12:00N 37°55' W 122°25'0 0.0
2017-May-20 11:30N 37°55' W 122°25'0 0.0
2017-May-20 11:00N 37°55' W 122°25'0 0.0
2017-May-20 10:30N 37°55' W 122°25'0 0.0
2017-May-20 10:00N 37°55' W 122°25'0 0.0
2017-May-20 09:30N 37°55' W 122°25'0 0.0
2017-May-20 09:00N 37°55' W 122°25'0 0.0
2017-May-20 08:30N 37°55' W 122°25'0 0.0
2017-May-20 08:00N 37°55' W 122°25'0 0.0
2017-May-20 07:30N 37°55' W 122°25'0 0.0
2017-May-20 07:00N 37°55' W 122°25'0 0.0
2017-May-20 06:30N 37°55' W 122°25'0 0.0
2017-May-20 06:00N 37°55' W 122°25'0 0.2
2017-May-20 05:30N 37°55' W 122°25'0 0.0
2017-May-20 05:00N 37°55' W 122°25'1 2.4
2017-May-20 04:30N 37°55' W 122°26'0 0.2
2017-May-20 04:00N 37°55' W 122°26'0 0.0
2017-May-20 03:30N 37°55' W 122°26'0 0.0
2017-May-20 03:00N 37°55' W 122°26'1 2.8
2017-May-20 02:30N 37°54' W 122°26'3 6.9
2017-May-20 02:00N 37°50' W 122°24'3 5.5
2017-May-20 01:30N 37°49' W 122°27'4 8.9
2017-May-20 01:00N 37°47' W 122°32'4 8.5
2017-May-20 00:30N 37°46' W 122°38'4 7.1
2017-May-20 00:00N 37°46' W 122°42'2 4.8
2017-May-19 23:30N 37°46' W 122°45'2 4.7
2017-May-19 23:00N 37°47' W 122°48'3 5.9
2017-May-19 22:30N 37°48' W 122°51'3 5.8
2017-May-19 22:00N 37°49' W 122°54'3 5.9
2017-May-19 21:30N 37°51' W 122°58'3 6.0
2017-May-19 21:00N 37°52' W 123°01'3 6.1
2017-May-19 20:30N 37°54' W 123°04'4 7.4
2017-May-19 20:00N 37°56' W 123°08'4 8.1
2017-May-19 19:30N 37°58' W 123°12'4 8.3
2017-May-19 19:00N 38°02' W 123°16'4 8.4
2017-May-19 18:30N 38°05' W 123°19'5 9.1
2017-May-19 18:00N 38°08' W 123°23'5 9.7
2017-May-19 17:30N 38°10' W 123°29'5 9.2
2017-May-19 17:00N 38°12' W 123°34'5 9.2
2017-May-19 16:30N 38°14' W 123°39'5 9.2
2017-May-19 16:00N 38°17' W 123°44'5 9.5
2017-May-19 15:30N 38°21' W 123°48'5 9.6
2017-May-19 15:00N 38°25' W 123°52'5 9.4
2017-May-19 14:30N 38°28' W 123°55'57 9.5
2017-May-19 08:27N 39°19' W 124°30'4 9.6
2017-May-19 08:00N 39°23' W 124°32'353 9.2
2017-May-17 17:41N 45°17' W 124°35'2 8.7
2017-May-17 17:30N 45°18' W 124°35'4 8.7
2017-May-17 17:00N 45°22' W 124°35'4 8.4
2017-May-17 16:30N 45°27' W 124°34'4 8.4
2017-May-17 16:00N 45°31' W 124°34'4 8.4
2017-May-17 15:30N 45°35' W 124°33'4 8.4
2017-May-17 15:00N 45°39' W 124°33'4 8.5
2017-May-17 14:30N 45°43' W 124°33'9 8.6
2017-May-17 13:30N 45°52' W 124°32'4 7.6
2017-May-17 13:00N 45°56' W 124°31'4 7.0
2017-May-17 12:30N 45°58' W 124°27'4 7.0
2017-May-17 12:00N 46°01' W 124°24'4 7.7
2017-May-17 11:30N 46°04' W 124°21'4 7.9
2017-May-17 11:00N 46°07' W 124°17'4 8.0
2017-May-17 10:30N 46°10' W 124°14'3 6.1
2017-May-17 10:00N 46°12' W 124°10'4 8.1
2017-May-17 09:30N 46°15' W 124°06'4 8.0
2017-May-17 09:00N 46°15' W 124°00'510.4
2017-May-17 08:30N 46°11' W 123°55'510.4
2017-May-17 08:00N 46°13' W 123°47'611.1
2017-May-17 07:30N 46°15' W 123°40'611.8
2017-May-17 07:00N 46°16' W 123°32'510.1
2017-May-17 06:30N 46°13' W 123°25'611.0
2017-May-17 06:00N 46°09' W 123°21'612.5
2017-May-17 05:30N 46°10' W 123°13'611.5
2017-May-17 05:00N 46°10' W 123°04'612.8
2017-May-17 04:30N 46°06' W 122°57'612.0
2017-May-17 04:00N 46°01' W 122°52'612.2
2017-May-17 03:30N 45°56' W 122°48'612.3
2017-May-17 03:00N 45°49' W 122°48'612.3
2017-May-17 02:30N 45°43' W 122°46'510.2
2017-May-17 02:00N 45°38' W 122°47'4 7.5
2017-May-17 01:30N 45°35' W 122°45'3 5.1
2017-May-17 01:00N 45°33' W 122°42'0 0.2
2017-May-17 00:30N 45°33' W 122°42'0 0.1
2017-May-17 00:00N 45°33' W 122°42'0 0.0
2017-May-16 23:30N 45°33' W 122°42'0 0.0
2017-May-16 23:00N 45°33' W 122°42'0 0.0
2017-May-16 22:30N 45°33' W 122°42'0 0.0
2017-May-16 22:00N 45°33' W 122°42'0 0.0
2017-May-16 21:30N 45°33' W 122°42'0 0.0
2017-May-16 21:00N 45°33' W 122°42'0 0.0
2017-May-16 20:30N 45°33' W 122°42'0 0.0
2017-May-16 20:00N 45°33' W 122°42'0 0.0
2017-May-16 19:30N 45°33' W 122°42'0 0.0
2017-May-16 19:00N 45°33' W 122°42'0 0.0
2017-May-16 18:30N 45°33' W 122°42'0 0.0
2017-May-16 18:00N 45°33' W 122°42'0 0.0
2017-May-16 17:30N 45°33' W 122°42'0 0.0
2017-May-16 17:00N 45°33' W 122°42'0 0.0
2017-May-16 16:30N 45°33' W 122°42'0 0.0
2017-May-16 16:00N 45°33' W 122°42'0 0.0
2017-May-16 15:30N 45°33' W 122°42'0 0.0
2017-May-16 15:00N 45°33' W 122°42'0 0.0
2017-May-16 14:30N 45°33' W 122°42'2 1.7
2017-May-16 13:30N 45°34' W 122°44'0 0.1
2017-May-16 13:00N 45°34' W 122°44'2 3.3
2017-May-16 12:30N 45°33' W 122°42'0 0.0
2017-May-16 12:00N 45°33' W 122°42'0 0.0
2017-May-16 11:30N 45°33' W 122°42'0 0.0
2017-May-16 11:00N 45°33' W 122°42'0 0.0
2017-May-16 10:30N 45°33' W 122°42'0 0.0
2017-May-16 10:00N 45°33' W 122°42'0 0.0
2017-May-16 09:30N 45°33' W 122°42'0 0.0
2017-May-16 09:00N 45°33' W 122°42'0 0.0
2017-May-16 08:30N 45°33' W 122°42'0 0.0
2017-May-16 08:00N 45°33' W 122°42'0 0.0
2017-May-16 07:30N 45°33' W 122°42'0 0.0
2017-May-16 07:00N 45°33' W 122°42'0 0.0
2017-May-16 06:30N 45°33' W 122°42'0 0.0
2017-May-16 06:00N 45°33' W 122°42'0 0.0
2017-May-16 05:30N 45°33' W 122°42'0 0.0
2017-May-16 05:00N 45°33' W 122°42'0 0.0
2017-May-16 04:30N 45°33' W 122°42'0 0.0
2017-May-16 04:00N 45°33' W 122°42'0 0.0
2017-May-16 03:30N 45°33' W 122°42'0 0.0
2017-May-16 03:00N 45°33' W 122°42'0 0.0
2017-May-16 02:30N 45°33' W 122°42'0 0.0
2017-May-16 02:00N 45°33' W 122°42'0 0.0
2017-May-16 01:30N 45°33' W 122°42'0 0.0
2017-May-16 01:00N 45°33' W 122°42'0 0.0
2017-May-16 00:30N 45°33' W 122°42'0 0.0
2017-May-16 00:00N 45°33' W 122°42'0 0.0
2017-May-15 23:30N 45°33' W 122°42'0 0.0
2017-May-15 23:00N 45°33' W 122°42'0 0.0
2017-May-15 22:30N 45°33' W 122°42'0 0.0
2017-May-15 22:00N 45°33' W 122°42'0 0.0
2017-May-15 21:30N 45°33' W 122°42'0 0.0
2017-May-15 21:00N 45°33' W 122°42'0 0.0
2017-May-15 20:30N 45°33' W 122°42'0 0.0
2017-May-15 20:00N 45°33' W 122°42'0 0.0
2017-May-15 19:30N 45°33' W 122°42'0 0.0
2017-May-15 19:00N 45°33' W 122°42'0 0.0
2017-May-15 18:30N 45°33' W 122°42'0 0.0
2017-May-15 18:00N 45°33' W 122°42'0 0.0
2017-May-15 17:30N 45°33' W 122°42'0 0.0
2017-May-15 17:00N 45°33' W 122°42'0 0.0
2017-May-15 16:29N 45°33' W 122°42'0 0.0
2017-May-15 16:00N 45°33' W 122°42'0 0.0
2017-May-15 15:30N 45°33' W 122°42'0 0.0
2017-May-15 15:00N 45°33' W 122°42'0 0.0
2017-May-15 14:30N 45°33' W 122°42'0 0.0
2017-May-15 13:30N 45°33' W 122°42'0 0.0
2017-May-15 13:00N 45°33' W 122°42'0 0.0
2017-May-15 12:30N 45°33' W 122°42'0 0.0
2017-May-15 12:00N 45°33' W 122°42'0 0.0
2017-May-15 11:30N 45°33' W 122°42'0 0.0
2017-May-15 11:00N 45°33' W 122°42'0 0.0
2017-May-15 10:30N 45°33' W 122°42'0 0.0
2017-May-15 10:00N 45°33' W 122°42'2 2.7
2017-May-15 09:23N 45°34' W 122°44'0 0.0
2017-May-15 09:00N 45°34' W 122°44'0 0.5
2017-May-15 08:30N 45°34' W 122°44'1 2.7
2017-May-15 08:00N 45°35' W 122°46'2 4.7
2017-May-15 07:30N 45°37' W 122°47'2 4.9
2017-May-15 07:00N 45°39' W 122°46'3 6.9
2017-May-15 06:30N 45°43' W 122°46'3 7.0
2017-May-15 06:00N 45°46' W 122°46'3 6.9
2017-May-15 05:30N 45°49' W 122°48'3 6.5
2017-May-15 04:59N 45°53' W 122°48'3 6.6
2017-May-15 04:30N 45°56' W 122°48'3 6.7
2017-May-15 04:00N 45°59' W 122°50'3 6.9
2017-May-15 03:31N 46°02' W 122°53'3 6.5
2017-May-15 03:00N 46°05' W 122°54'3 6.7
2017-May-15 02:30N 46°07' W 122°58'3 6.8
2017-May-15 02:00N 46°09' W 123°02'4 7.0
2017-May-15 01:30N 46°11' W 123°07'3 6.7
2017-May-15 01:00N 46°11' W 123°11'4 7.0
2017-May-15 00:30N 46°09' W 123°16'4 7.5
2017-May-15 00:00N 46°09' W 123°21'4 7.1
2017-May-14 23:30N 46°11' W 123°25'3 6.9
2017-May-14 23:00N 46°14' W 123°26'4 7.1
2017-May-14 22:30N 46°16' W 123°30'4 7.9
2017-May-14 22:00N 46°15' W 123°35'4 7.8
2017-May-14 21:30N 46°15' W 123°41'7 8.7
2017-May-14 20:39N 46°12' W 123°50'1 8.6
2017-May-14 20:30N 46°11' W 123°52'3 5.2
2017-May-14 20:00N 46°12' W 123°56'2 4.9
2017-May-14 19:30N 46°14' W 123°58'2 4.9
2017-May-14 19:00N 46°15' W 124°01'3 5.3
2017-May-14 18:30N 46°15' W 124°05'3 5.2
2017-May-14 18:00N 46°13' W 124°08'3 6.6
2017-May-14 17:30N 46°11' W 124°11'3 5.1
2017-May-14 17:00N 46°10' W 124°14'3 6.0
2017-May-14 16:30N 46°07' W 124°17'3 6.1
2017-May-14 16:00N 46°05' W 124°20'3 6.2
2017-May-14 15:30N 46°03' W 124°23'3 6.9
2017-May-14 15:00N 46°00' W 124°26'4 7.0
2017-May-14 14:30N 45°58' W 124°30'6 6.1
2017-May-14 13:30N 45°53' W 124°36'3 5.6
2017-May-14 13:00N 45°51' W 124°39'3 5.6
2017-May-14 12:30N 45°49' W 124°41'3 5.5
2017-May-14 12:01N 45°47' W 124°44'3 5.1
2017-May-14 11:30N 45°45' W 124°45'2 4.8
2017-May-14 11:00N 45°42' W 124°45'2 4.2
2017-May-14 10:30N 45°40' W 124°44'2 4.2
2017-May-14 10:00N 45°38' W 124°43'2 4.3
2017-May-14 09:30N 45°36' W 124°43'2 4.5
2017-May-14 09:00N 45°34' W 124°43'2 4.7
2017-May-14 08:30N 45°31' W 124°43'2 4.9
2017-May-14 08:00N 45°29' W 124°43'3 5.1
2017-May-14 07:30N 45°26' W 124°43'3 5.1
2017-May-14 07:00N 45°24' W 124°43'  
Track history (hours):
 
Tides and Currents Weather Stations Pressure Air Temp Water Temp Dewpoint Dewpoint Depression Visibility Wind Speed Wind Dir Waves Ship Positions

Tecumseh

Owner: Sause Bros. Inc., COOS BAY, OR. More information available from US FCC via Universal Licensing System and Coast Guard Vessel Documentation Center.

Last reported at 2017-May-23 02:59 UTC. Time now 2017-May-23 03:13 UTC.
Position N 33°40' W 119°27'.

Length 90 m; draft 4.8 m.

Type: Towing. MMSI: 367133160.

Date/timePositionNaut miles runAvg speedWind from/ knotsBaromVisibWave heightAir tempDewpointWater temp
2017-May-23 02:59N 33°40' W 119°27'4 8.1
2017-May-23 02:30N 33°40' W 119°32'4 8.6
2017-May-23 01:59N 33°41' W 119°37'4 9.0
2017-May-23 01:30N 33°41' W 119°42'4 8.9
2017-May-23 01:00N 33°42' W 119°48'3 6.4
2017-May-23 00:30N 33°42' W 119°51'5 8.6
2017-May-22 23:53N 33°43' W 119°58'4 9.6
2017-May-22 23:30N 33°43' W 120°02'5 8.7
2017-May-22 22:54N 33°44' W 120°08'3 8.8
2017-May-22 22:30N 33°45' W 120°12'6 8.3
2017-May-22 21:44N 33°46' W 120°20'2 8.2
2017-May-22 21:30N 33°47' W 120°22'5 7.5
2017-May-22 20:51N 33°48' W 120°28'3 7.7
2017-May-22 20:29N 33°49' W 120°31'3 7.3
2017-May-22 20:00N 33°50' W 120°35'4 7.5
2017-May-22 19:30N 33°50' W 120°40'4 7.3
2017-May-22 18:59N 33°51' W 120°44'4 7.3
2017-May-22 18:23N 33°52' W 120°49'3 7.4
2017-May-22 17:59N 33°53' W 120°53'4 7.6
2017-May-22 17:30N 33°54' W 120°57'4 7.3
2017-May-22 17:00N 33°56' W 121°00'5 7.7
2017-May-22 16:22N 34°01' W 121°03'3 7.5
2017-May-22 15:59N 34°03' W 121°05'4 7.8
2017-May-22 15:30N 34°06' W 121°07'4 7.5
2017-May-22 14:59N 34°10' W 121°09'7 7.6
2017-May-22 14:00N 34°17' W 121°13'4 7.6
2017-May-22 13:29N 34°20' W 121°15'5 7.6
2017-May-22 12:50N 34°24' W 121°18'3 8.0
2017-May-22 12:29N 34°27' W 121°20'4 8.0
2017-May-22 12:00N 34°30' W 121°21'4 7.8
2017-May-22 11:29N 34°34' W 121°24'4 7.6
2017-May-22 11:00N 34°37' W 121°26'4 7.2
2017-May-22 10:30N 34°40' W 121°28'4 7.3
2017-May-22 10:00N 34°43' W 121°30'4 7.4
2017-May-22 09:27N 34°47' W 121°33'3 7.5
2017-May-22 09:00N 34°50' W 121°35'4 7.2
2017-May-22 08:30N 34°53' W 121°37'4 7.2
2017-May-22 08:00N 34°56' W 121°39'4 7.2
2017-May-22 07:30N 34°60' W 121°41'4 7.1
2017-May-22 06:59N 35°03' W 121°43'3 7.0
2017-May-22 06:30N 35°06' W 121°45'3 7.0
2017-May-22 06:00N 35°09' W 121°47'4 7.6
2017-May-22 05:27N 35°13' W 121°49'3 7.6
2017-May-22 05:00N 35°16' W 121°51'4 7.4
2017-May-22 04:30N 35°19' W 121°53'4 7.3
2017-May-22 04:00N 35°22' W 121°56'5 7.7
2017-May-22 03:24N 35°26' W 121°58'3 7.6
2017-May-22 03:00N 35°29' W 122°00'4 7.5
2017-May-22 02:30N 35°32' W 122°02'8 7.6
2017-May-22 01:29N 35°39' W 122°06'4 7.7
2017-May-22 00:58N 35°43' W 122°09'4 7.9
2017-May-22 00:26N 35°46' W 122°11'4 9.0
2017-May-22 00:00N 35°50' W 122°13'5 9.1
2017-May-21 23:25N 35°54' W 122°16'4 8.9
2017-May-21 23:00N 35°58' W 122°18'4 8.8
2017-May-21 22:30N 36°02' W 122°21'5 9.0
2017-May-21 22:00N 36°06' W 122°23'4 8.4
2017-May-21 21:30N 36°09' W 122°26'4 8.1
2017-May-21 21:00N 36°13' W 122°28'4 8.0
2017-May-21 20:30N 36°17' W 122°30'4 8.0
2017-May-21 20:00N 36°20' W 122°33'4 8.3
2017-May-21 19:30N 36°24' W 122°35'4 8.3
2017-May-21 19:00N 36°28' W 122°37'4 8.6
2017-May-21 18:30N 36°32' W 122°39'4 8.2
2017-May-21 18:00N 36°35' W 122°41'4 7.8
2017-May-21 17:30N 36°39' W 122°43'4 7.6
2017-May-21 17:00N 36°42' W 122°45'4 7.5
2017-May-21 16:30N 36°46' W 122°47'4 7.4
2017-May-21 15:56N 36°50' W 122°49'3 7.6
2017-May-21 15:30N 36°53' W 122°51'4 7.6
2017-May-21 14:59N 36°56' W 122°53'8 7.9
2017-May-21 14:00N 37°03' W 122°57'10 8.0
2017-May-21 12:45N 37°13' W 123°02'4 8.6
2017-May-21 12:18N 37°17' W 123°02'3 8.5
2017-May-21 11:56N 37°20' W 123°03'4 8.1
2017-May-21 11:30N 37°23' W 123°04'5 8.1
2017-May-21 10:52N 37°28' W 123°05'3 8.3
2017-May-21 10:30N 37°31' W 123°05'5 7.4
2017-May-21 09:53N 37°35' W 123°02'5 7.5
2017-May-21 09:14N 37°38' W 122°57'2 7.8
2017-May-21 09:00N 37°39' W 122°55'4 7.2
2017-May-21 08:30N 37°41' W 122°52'4 8.3
2017-May-21 08:00N 37°43' W 122°47'4 8.1
2017-May-21 07:30N 37°46' W 122°43'4 7.3
2017-May-21 07:00N 37°46' W 122°39'4 9.1
2017-May-21 06:30N 37°47' W 122°33'5 9.2
2017-May-21 06:00N 37°49' W 122°28'4 7.1
2017-May-21 05:30N 37°52' W 122°25'3 5.6
2017-May-21 05:00N 37°55' W 122°26'1 1.7
2017-May-21 04:30N 37°55' W 122°26'1 1.4
2017-May-21 04:00N 37°55' W 122°25'0 0.0
2017-May-21 03:30N 37°55' W 122°25'0 0.2
2017-May-21 03:00N 37°55' W 122°25'0 0.0
2017-May-21 02:30N 37°55' W 122°25'0 0.0
2017-May-21 02:00N 37°55' W 122°25'0 0.0
2017-May-21 01:30N 37°55' W 122°25'0 0.0
2017-May-21 01:00N 37°55' W 122°25'0 0.0
2017-May-21 00:30N 37°55' W 122°25'0 0.0
2017-May-21 00:00N 37°55' W 122°25'0 0.0
2017-May-20 23:30N 37°55' W 122°25'0 0.0
2017-May-20 23:00N 37°55' W 122°25'0 0.0
2017-May-20 22:30N 37°55' W 122°25'0 0.0
2017-May-20 22:00N 37°55' W 122°25'0 0.0
2017-May-20 21:30N 37°55' W 122°25'0 0.0
2017-May-20 21:00N 37°55' W 122°25'0 0.0
2017-May-20 20:30N 37°55' W 122°25'0 0.0
2017-May-20 20:00N 37°55' W 122°25'0 0.0
2017-May-20 19:30N 37°55' W 122°25'0 0.0
2017-May-20 19:00N 37°55' W 122°25'0 0.0
2017-May-20 18:30N 37°55' W 122°25'0 0.0
2017-May-20 18:00N 37°55' W 122°25'0 0.0
2017-May-20 17:30N 37°55' W 122°25'0 0.0
2017-May-20 17:00N 37°55' W 122°25'0 0.0
2017-May-20 16:30N 37°55' W 122°25'0 0.0
2017-May-20 16:00N 37°55' W 122°25'0 0.0
2017-May-20 15:30N 37°55' W 122°25'0 0.0
2017-May-20 14:59N 37°55' W 122°25'0 0.0
2017-May-20 14:30N 37°55' W 122°25'0 0.0
2017-May-20 13:30N 37°55' W 122°25'0 0.0
2017-May-20 13:00N 37°55' W 122°25'0 0.0
2017-May-20 12:30N 37°55' W 122°25'0 0.0
2017-May-20 12:00N 37°55' W 122°25'0 0.0
2017-May-20 11:30N 37°55' W 122°25'0 0.0
2017-May-20 11:00N 37°55' W 122°25'0 0.0
2017-May-20 10:30N 37°55' W 122°25'0 0.0
2017-May-20 10:00N 37°55' W 122°25'0 0.0
2017-May-20 09:30N 37°55' W 122°25'0 0.0
2017-May-20 09:00N 37°55' W 122°25'0 0.0
2017-May-20 08:30N 37°55' W 122°25'0 0.0
2017-May-20 08:00N 37°55' W 122°25'0 0.0
2017-May-20 07:30N 37°55' W 122°25'0 0.0
2017-May-20 07:00N 37°55' W 122°25'0 0.0
2017-May-20 06:30N 37°55' W 122°25'0 0.0
2017-May-20 06:00N 37°55' W 122°25'0 0.2
2017-May-20 05:30N 37°55' W 122°25'0 0.0
2017-May-20 05:00N 37°55' W 122°25'1 2.4
2017-May-20 04:30N 37°55' W 122°26'0 0.2
2017-May-20 04:00N 37°55' W 122°26'0 0.0
2017-May-20 03:30N 37°55' W 122°26'0 0.0
2017-May-20 03:00N 37°55' W 122°26'1 2.8
2017-May-20 02:30N 37°54' W 122°26'3 6.9
2017-May-20 02:00N 37°50' W 122°24'3 5.5
2017-May-20 01:30N 37°49' W 122°27'4 8.9
2017-May-20 01:00N 37°47' W 122°32'4 8.5
2017-May-20 00:30N 37°46' W 122°38'4 7.1
2017-May-20 00:00N 37°46' W 122°42'2 4.8
2017-May-19 23:30N 37°46' W 122°45'2 4.7
2017-May-19 23:00N 37°47' W 122°48'3 5.9
2017-May-19 22:30N 37°48' W 122°51'3 5.8
2017-May-19 22:00N 37°49' W 122°54'3 5.9
2017-May-19 21:30N 37°51' W 122°58'3 6.0
2017-May-19 21:00N 37°52' W 123°01'3 6.1
2017-May-19 20:30N 37°54' W 123°04'4 7.4
2017-May-19 20:00N 37°56' W 123°08'4 8.1
2017-May-19 19:30N 37°58' W 123°12'4 8.3
2017-May-19 19:00N 38°02' W 123°16'4 8.4
2017-May-19 18:30N 38°05' W 123°19'5 9.1
2017-May-19 18:00N 38°08' W 123°23'5 9.7
2017-May-19 17:30N 38°10' W 123°29'5 9.2
2017-May-19 17:00N 38°12' W 123°34'5 9.2
2017-May-19 16:30N 38°14' W 123°39'5 9.2
2017-May-19 16:00N 38°17' W 123°44'5 9.5
2017-May-19 15:30N 38°21' W 123°48'5 9.6
2017-May-19 15:00N 38°25' W 123°52'5 9.4
2017-May-19 14:30N 38°28' W 123°55'57 9.5
2017-May-19 08:27N 39°19' W 124°30'4 9.6
2017-May-19 08:00N 39°23' W 124°32'353 9.2
2017-May-17 17:41N 45°17' W 124°35'2 8.7
2017-May-17 17:30N 45°18' W 124°35'4 8.7
2017-May-17 17:00N 45°22' W 124°35'4 8.4
2017-May-17 16:30N 45°27' W 124°34'4 8.4
2017-May-17 16:00N 45°31' W 124°34'4 8.4
2017-May-17 15:30N 45°35' W 124°33'4 8.4
2017-May-17 15:00N 45°39' W 124°33'4 8.5
2017-May-17 14:30N 45°43' W 124°33'9 8.6
2017-May-17 13:30N 45°52' W 124°32'4 7.6
2017-May-17 13:00N 45°56' W 124°31'4 7.0
2017-May-17 12:30N 45°58' W 124°27'4 7.0
2017-May-17 12:00N 46°01' W 124°24'4 7.7
2017-May-17 11:30N 46°04' W 124°21'4 7.9
2017-May-17 11:00N 46°07' W 124°17'4 8.0
2017-May-17 10:30N 46°10' W 124°14'3 6.1
2017-May-17 10:00N 46°12' W 124°10'4 8.1
2017-May-17 09:30N 46°15' W 124°06'4 8.0
2017-May-17 09:00N 46°15' W 124°00'510.4
2017-May-17 08:30N 46°11' W 123°55'510.4
2017-May-17 08:00N 46°13' W 123°47'611.1
2017-May-17 07:30N 46°15' W 123°40'611.8
2017-May-17 07:00N 46°16' W 123°32'510.1
2017-May-17 06:30N 46°13' W 123°25'611.0
2017-May-17 06:00N 46°09' W 123°21'612.5
2017-May-17 05:30N 46°10' W 123°13'611.5
2017-May-17 05:00N 46°10' W 123°04'612.8
2017-May-17 04:30N 46°06' W 122°57'612.0
2017-May-17 04:00N 46°01' W 122°52'612.2
2017-May-17 03:30N 45°56' W 122°48'612.3
2017-May-17 03:00N 45°49' W 122°48'612.3
2017-May-17 02:30N 45°43' W 122°46'510.2
2017-May-17 02:00N 45°38' W 122°47'4 7.5
2017-May-17 01:30N 45°35' W 122°45'3 5.1
2017-May-17 01:00N 45°33' W 122°42'0 0.2
2017-May-17 00:30N 45°33' W 122°42'0 0.1
2017-May-17 00:00N 45°33' W 122°42'0 0.0
2017-May-16 23:30N 45°33' W 122°42'0 0.0
2017-May-16 23:00N 45°33' W 122°42'0 0.0
2017-May-16 22:30N 45°33' W 122°42'0 0.0
2017-May-16 22:00N 45°33' W 122°42'0 0.0
2017-May-16 21:30N 45°33' W 122°42'0 0.0
2017-May-16 21:00N 45°33' W 122°42'0 0.0
2017-May-16 20:30N 45°33' W 122°42'0 0.0
2017-May-16 20:00N 45°33' W 122°42'0 0.0
2017-May-16 19:30N 45°33' W 122°42'0 0.0
2017-May-16 19:00N 45°33' W 122°42'0 0.0
2017-May-16 18:30N 45°33' W 122°42'0 0.0
2017-May-16 18:00N 45°33' W 122°42'0 0.0
2017-May-16 17:30N 45°33' W 122°42'0 0.0
2017-May-16 17:00N 45°33' W 122°42'0 0.0
2017-May-16 16:30N 45°33' W 122°42'0 0.0
2017-May-16 16:00N 45°33' W 122°42'0 0.0
2017-May-16 15:30N 45°33' W 122°42'0 0.0
2017-May-16 15:00N 45°33' W 122°42'0 0.0
2017-May-16 14:30N 45°33' W 122°42'2 1.7
2017-May-16 13:30N 45°34' W 122°44'0 0.1
2017-May-16 13:00N 45°34' W 122°44'2 3.3
2017-May-16 12:30N 45°33' W 122°42'0 0.0
2017-May-16 12:00N 45°33' W 122°42'0 0.0
2017-May-16 11:30N 45°33' W 122°42'0 0.0
2017-May-16 11:00N 45°33' W 122°42'0 0.0
2017-May-16 10:30N 45°33' W 122°42'0 0.0
2017-May-16 10:00N 45°33' W 122°42'0 0.0
2017-May-16 09:30N 45°33' W 122°42'0 0.0
2017-May-16 09:00N 45°33' W 122°42'0 0.0
2017-May-16 08:30N 45°33' W 122°42'0 0.0
2017-May-16 08:00N 45°33' W 122°42'0 0.0
2017-May-16 07:30N 45°33' W 122°42'0 0.0
2017-May-16 07:00N 45°33' W 122°42'0 0.0
2017-May-16 06:30N 45°33' W 122°42'0 0.0
2017-May-16 06:00N 45°33' W 122°42'0 0.0
2017-May-16 05:30N 45°33' W 122°42'0 0.0
2017-May-16 05:00N 45°33' W 122°42'0 0.0
2017-May-16 04:30N 45°33' W 122°42'0 0.0
2017-May-16 04:00N 45°33' W 122°42'0 0.0
2017-May-16 03:30N 45°33' W 122°42'0 0.0
2017-May-16 03:00N 45°33' W 122°42'0 0.0
2017-May-16 02:30N 45°33' W 122°42'0 0.0
2017-May-16 02:00N 45°33' W 122°42'0 0.0
2017-May-16 01:30N 45°33' W 122°42'0 0.0
2017-May-16 01:00N 45°33' W 122°42'0 0.0
2017-May-16 00:30N 45°33' W 122°42'0 0.0
2017-May-16 00:00N 45°33' W 122°42'0 0.0
2017-May-15 23:30N 45°33' W 122°42'0 0.0
2017-May-15 23:00N 45°33' W 122°42'0 0.0
2017-May-15 22:30N 45°33' W 122°42'0 0.0
2017-May-15 22:00N 45°33' W 122°42'0 0.0
2017-May-15 21:30N 45°33' W 122°42'0 0.0
2017-May-15 21:00N 45°33' W 122°42'0 0.0
2017-May-15 20:30N 45°33' W 122°42'0 0.0
2017-May-15 20:00N 45°33' W 122°42'0 0.0
2017-May-15 19:30N 45°33' W 122°42'0 0.0
2017-May-15 19:00N 45°33' W 122°42'0 0.0
2017-May-15 18:30N 45°33' W 122°42'0 0.0
2017-May-15 18:00N 45°33' W 122°42'0 0.0
2017-May-15 17:30N 45°33' W 122°42'0 0.0
2017-May-15 17:00N 45°33' W 122°42'0 0.0
2017-May-15 16:29N 45°33' W 122°42'0 0.0
2017-May-15 16:00N 45°33' W 122°42'0 0.0
2017-May-15 15:30N 45°33' W 122°42'0 0.0
2017-May-15 15:00N 45°33' W 122°42'0 0.0
2017-May-15 14:30N 45°33' W 122°42'0 0.0
2017-May-15 13:30N 45°33' W 122°42'0 0.0
2017-May-15 13:00N 45°33' W 122°42'0 0.0
2017-May-15 12:30N 45°33' W 122°42'0 0.0
2017-May-15 12:00N 45°33' W 122°42'0 0.0
2017-May-15 11:30N 45°33' W 122°42'0 0.0
2017-May-15 11:00N 45°33' W 122°42'0 0.0
2017-May-15 10:30N 45°33' W 122°42'0 0.0
2017-May-15 10:00N 45°33' W 122°42'2 2.7
2017-May-15 09:23N 45°34' W 122°44'0 0.0
2017-May-15 09:00N 45°34' W 122°44'0 0.5
2017-May-15 08:30N 45°34' W 122°44'1 2.7
2017-May-15 08:00N 45°35' W 122°46'2 4.7
2017-May-15 07:30N 45°37' W 122°47'2 4.9
2017-May-15 07:00N 45°39' W 122°46'3 6.9
2017-May-15 06:30N 45°43' W 122°46'3 7.0
2017-May-15 06:00N 45°46' W 122°46'3 6.9
2017-May-15 05:30N 45°49' W 122°48'3 6.5
2017-May-15 04:59N 45°53' W 122°48'3 6.6
2017-May-15 04:30N 45°56' W 122°48'3 6.7
2017-May-15 04:00N 45°59' W 122°50'3 6.9
2017-May-15 03:31N 46°02' W 122°53'3 6.5
2017-May-15 03:00N 46°05' W 122°54'3 6.7
2017-May-15 02:30N 46°07' W 122°58'3 6.8
2017-May-15 02:00N 46°09' W 123°02'4 7.0
2017-May-15 01:30N 46°11' W 123°07'3 6.7
2017-May-15 01:00N 46°11' W 123°11'4 7.0
2017-May-15 00:30N 46°09' W 123°16'4 7.5
2017-May-15 00:00N 46°09' W 123°21'4 7.1
2017-May-14 23:30N 46°11' W 123°25'3 6.9
2017-May-14 23:00N 46°14' W 123°26'4 7.1
2017-May-14 22:30N 46°16' W 123°30'4 7.9
2017-May-14 22:00N 46°15' W 123°35'4 7.8
2017-May-14 21:30N 46°15' W 123°41'7 8.7
2017-May-14 20:39N 46°12' W 123°50'1 8.6
2017-May-14 20:30N 46°11' W 123°52'3 5.2
2017-May-14 20:00N 46°12' W 123°56'2 4.9
2017-May-14 19:30N 46°14' W 123°58'2 4.9
2017-May-14 19:00N 46°15' W 124°01'3 5.3
2017-May-14 18:30N 46°15' W 124°05'3 5.2
2017-May-14 18:00N 46°13' W 124°08'3 6.6
2017-May-14 17:30N 46°11' W 124°11'3 5.1
2017-May-14 17:00N 46°10' W 124°14'3 6.0
2017-May-14 16:30N 46°07' W 124°17'3 6.1
2017-May-14 16:00N 46°05' W 124°20'3 6.2
2017-May-14 15:30N 46°03' W 124°23'3 6.9
2017-May-14 15:00N 46°00' W 124°26'4 7.0
2017-May-14 14:30N 45°58' W 124°30'6 6.1
2017-May-14 13:30N 45°53' W 124°36'3 5.6
2017-May-14 13:00N 45°51' W 124°39'3 5.6
2017-May-14 12:30N 45°49' W 124°41'3 5.5
2017-May-14 12:01N 45°47' W 124°44'3 5.1
2017-May-14 11:30N 45°45' W 124°45'2 4.8
2017-May-14 11:00N 45°42' W 124°45'2 4.2
2017-May-14 10:30N 45°40' W 124°44'2 4.2
2017-May-14 10:00N 45°38' W 124°43'2 4.3
2017-May-14 09:30N 45°36' W 124°43'2 4.5
2017-May-14 09:00N 45°34' W 124°43'2 4.7
2017-May-14 08:30N 45°31' W 124°43'2 4.9
2017-May-14 08:00N 45°29' W 124°43'3 5.1
2017-May-14 07:30N 45°26' W 124°43'3 5.1
2017-May-14 07:00N 45°24' W 124°43'  

Dump ship's entire track history